Time;durP1;ratioP1;P1;durP2;ratioP2;P2;SDS_P1;SDS_P2;PMS_P1;PMS_P2;Temp;Humidity;BMP_temperature;BMP_pressure;BME280_temperature;BME280_humidity;BME280_pressure;Samples;Min_cycle;Max_cycle;Signal;HPM_P1;HPM_P2
2024/01/04 00:01:13;;;;;;;0.00;0.00;;;;;;;8.42;100.00;99675.75;5076487;27;96892;-28
2024/01/04 00:03:39;;;;;;;0.57;0.17;;;;;;;8.46;100.00;99690.72;5078004;27;97841;-28
2024/01/04 00:06:04;;;;;;;0.80;0.20;;;;;;;8.45;100.00;99695.25;5076613;27;101680;-29
2024/01/04 00:08:30;;;;;;;4.07;0.20;;;;;;;8.44;100.00;99690.00;5078636;27;96454;-28
2024/01/04 00:10:55;;;;;;;0.22;0.08;;;;;;;8.50;100.00;99703.03;5078657;27;96778;-28
2024/01/04 00:13:20;;;;;;;0.28;0.28;;;;;;;8.52;100.00;99706.47;5078176;27;97899;-29
2024/01/04 00:15:46;;;;;;;0.38;0.20;;;;;;;8.53;100.00;99710.91;5078049;27;97759;-29
2024/01/04 00:18:11;;;;;;;0.00;0.00;;;;;;;8.50;100.00;99705.72;5078574;27;96532;-28
2024/01/04 00:20:36;;;;;;;0.38;0.20;;;;;;;8.55;100.00;99717.06;5078924;27;96822;-28
2024/01/04 00:23:02;;;;;;;0.47;0.05;;;;;;;8.56;100.00;99721.50;5078119;27;97925;-28
2024/01/04 00:25:27;;;;;;;3.75;0.10;;;;;;;8.57;100.00;99727.75;5077926;27;97412;-29
2024/01/04 00:27:53;;;;;;;0.52;0.38;;;;;;;8.53;100.00;99723.53;5077860;27;96628;-30
2024/01/04 00:30:18;;;;;;;1.02;0.43;;;;;;;8.59;100.00;99733.91;5076657;27;96844;-27
2024/01/04 00:32:44;;;;;;;0.00;0.00;;;;;;;8.58;100.00;99741.16;5077764;27;99310;-28
2024/01/04 00:35:09;;;;;;;0.10;0.08;;;;;;;8.55;100.00;99741.34;5077311;27;97311;-28
2024/01/04 00:37:35;;;;;;;0.00;0.00;;;;;;;8.56;100.00;99736.84;5076119;27;96827;-28
2024/01/04 00:40:00;;;;;;;0.38;0.30;;;;;;;8.52;100.00;99735.31;5078108;27;96778;-28
2024/01/04 00:42:25;;;;;;;0.57;0.20;;;;;;;8.56;100.00;99736.84;5076987;27;99844;-29
2024/01/04 00:44:51;;;;;;;0.10;0.10;;;;;;;8.58;100.00;99751.94;5078139;27;97329;-30
2024/01/04 00:47:16;;;;;;;0.20;0.20;;;;;;;8.63;100.00;99762.41;5078064;27;96699;-28
2024/01/04 00:49:41;;;;;;;0.90;0.40;;;;;;;8.63;100.00;99770.50;5077666;27;96754;-28
2024/01/04 00:52:07;;;;;;;1.63;0.30;;;;;;;8.60;100.00;99762.59;5076913;27;97449;-28
2024/01/04 00:54:32;;;;;;;0.38;0.20;;;;;;;8.62;100.00;99776.88;5077614;27;100948;-28
2024/01/04 00:57:00;;;;;;;0.75;0.30;;;;;;;8.64;100.00;99796.53;5077598;27;96461;-28
2024/01/04 00:59:26;;;;;;;0.82;0.68;;;;;;;8.59;100.00;99787.88;5077526;27;96803;-29
2024/01/04 01:01:52;;;;;;;0.52;0.38;;;;;;;8.55;100.00;99789.91;5091285;27;99258;-28
2024/01/04 01:04:17;;;;;;;3.33;0.68;;;;;;;8.59;100.00;99796.00;5078982;27;101370;-28
2024/01/04 01:06:42;;;;;;;0.52;0.50;;;;;;;8.57;100.00;99792.53;5098589;27;96608;-29
2024/01/04 01:09:08;;;;;;;0.88;0.43;;;;;;;8.58;100.00;99805.03;5098896;27;96799;-28
2024/01/04 01:11:33;;;;;;;0.70;0.60;;;;;;;8.61;100.00;99811.09;5098035;27;97558;-29
2024/01/04 01:13:58;;;;;;;0.68;0.50;;;;;;;8.58;100.00;99810.44;5097977;27;97781;-28
2024/01/04 01:16:25;;;;;;;0.45;0.43;;;;;;;8.60;100.00;99816.59;5097596;27;96612;-28
2024/01/04 01:18:50;;;;;;;1.20;0.70;;;;;;;8.58;100.00;99802.34;5079077;27;96891;-28
2024/01/04 01:21:15;;;;;;;0.68;0.32;;;;;;;8.58;100.00;99816.72;5097761;27;97933;-28
2024/01/04 01:23:41;;;;;;;0.38;0.38;;;;;;;8.57;100.00;99819.50;5097811;27;97833;-28
2024/01/04 01:26:06;;;;;;;0.82;0.80;;;;;;;8.62;100.00;99823.59;5079229;27;96610;-28
2024/01/04 01:28:31;;;;;;;0.77;0.63;;;;;;;8.61;100.00;99835.41;5098139;27;96841;-29
2024/01/04 01:31:00;;;;;;;2.95;0.60;;;;;;;8.65;100.00;99842.31;5097588;27;98063;-28
2024/01/04 01:33:26;;;;;;;2.38;0.47;;;;;;;8.66;100.00;99837.78;5078702;27;100785;-29
2024/01/04 01:35:51;;;;;;;0.52;0.40;;;;;;;8.58;100.00;99834.72;5097839;27;96466;-28
2024/01/04 01:38:16;;;;;;;1.25;0.80;;;;;;;8.64;100.00;99853.22;5097766;27;96723;-29
2024/01/04 01:40:42;;;;;;;1.67;0.82;;;;;;;8.66;100.00;99859.38;5096928;27;97406;-28
2024/01/04 01:43:07;;;;;;;5.72;0.93;;;;;;;8.62;100.00;99855.16;5097121;27;97813;-28
2024/01/04 01:45:32;;;;;;;0.90;0.63;;;;;;;8.62;100.00;99850.59;5097513;27;96597;-29
2024/01/04 01:47:58;;;;;;;1.92;1.00;;;;;;;8.68;100.00;99857.44;5096886;27;96787;-28
2024/01/04 01:50:24;;;;;;;0.57;0.55;;;;;;;8.70;100.00;99875.25;5097255;27;97843;-27
2024/01/04 01:52:53;;;;;;;0.80;0.80;;;;;;;8.71;100.00;99885.06;5096692;27;99313;-28
2024/01/04 01:55:20;;;;;;;2.17;0.68;;;;;;;8.71;100.00;99871.56;5097530;27;96445;-28
2024/01/04 01:57:45;;;;;;;5.47;0.73;;;;;;;8.71;100.00;99876.97;5078993;27;96832;-28
2024/01/04 02:00:13;;;;;;;0.47;0.25;;;;;;;8.73;100.00;99874.16;5097012;27;96986;-28
2024/01/04 02:02:38;;;;;;;0.70;0.38;;;;;;;8.67;100.00;99882.69;5096604;27;99858;-28
2024/01/04 02:05:04;;;;;;;0.43;0.40;;;;;;;8.69;100.00;99883.44;5096783;27;96501;-28
2024/01/04 02:07:30;;;;;;;0.40;0.25;;;;;;;8.75;100.00;99898.34;5096917;27;96785;-28
2024/01/04 02:09:55;;;;;;;4.22;0.50;;;;;;;8.68;100.00;99887.13;5096647;27;99421;-29
2024/01/04 02:12:21;;;;;;;0.40;0.30;;;;;;;8.67;100.00;99893.47;5078221;27;100410;-28
2024/01/04 02:14:48;;;;;;;0.35;0.20;;;;;;;8.71;100.00;99901.25;5078458;27;96690;-28
2024/01/04 02:17:13;;;;;;;1.05;0.43;;;;;;;8.71;100.00;99900.41;5078310;27;96818;-28
2024/01/04 02:19:39;;;;;;;0.52;0.52;;;;;;;8.73;100.00;99900.31;5096726;27;97405;-28
2024/01/04 02:22:04;;;;;;;0.22;0.17;;;;;;;8.71;100.00;99914.75;5078212;27;100981;-28
2024/01/04 02:24:30;;;;;;;0.50;0.43;;;;;;;8.69;100.00;99914.00;5096776;27;96609;-29
2024/01/04 02:26:55;;;;;;;0.20;0.20;;;;;;;8.75;100.00;99915.44;5096694;27;96766;-28
2024/01/04 02:29:20;;;;;;;0.38;0.38;;;;;;;8.66;100.00;99908.81;5096106;27;99223;-28
2024/01/04 02:31:48;;;;;;;0.60;0.22;;;;;;;8.64;100.00;99913.44;5096651;27;97164;-28
2024/01/04 02:34:13;;;;;;;0.38;0.38;;;;;;;8.65;100.00;99914.31;5078087;27;96624;-28
2024/01/04 02:36:39;;;;;;;0.35;0.25;;;;;;;8.68;100.00;99917.69;5096649;27;96833;-28
2024/01/04 02:39:04;;;;;;;1.23;0.65;;;;;;;8.68;100.00;99922.22;5096561;27;96647;-28
2024/01/04 02:41:30;;;;;;;0.68;0.50;;;;;;;8.66;100.00;99927.72;5096418;27;97758;-29
2024/01/04 02:43:55;;;;;;;1.40;0.50;;;;;;;8.71;100.00;99938.19;5096546;27;96783;-28
2024/01/04 02:46:20;;;;;;;1.10;0.43;;;;;;;8.71;100.00;99939.06;5096783;27;96781;-28
2024/01/04 02:48:46;;;;;;;4.05;0.63;;;;;;;8.71;100.00;99941.75;5096199;27;99642;-29
2024/01/04 02:51:11;;;;;;;2.13;0.77;;;;;;;8.77;100.00;99942.31;5095981;27;99819;-28
2024/01/04 02:53:36;;;;;;;1.48;0.85;;;;;;;8.78;100.00;99950.31;5096074;27;96693;-28
2024/01/04 02:56:03;;;;;;;2.15;1.10;;;;;;;8.81;100.00;99952.78;5096654;27;96852;-28
2024/01/04 02:58:28;;;;;;;0.47;0.40;;;;;;;8.83;100.00;99955.41;5076709;27;100881;-28
2024/01/04 03:00:53;;;;;;;1.05;0.57;;;;;;;8.78;100.00;99949.44;5095133;27;97827;-28
2024/01/04 03:03:19;;;;;;;0.90;0.68;;;;;;;8.82;100.00;99956.34;5096545;27;96528;-28
2024/01/04 03:05:44;;;;;;;0.93;0.75;;;;;;;8.82;100.00;99959.03;5096220;27;96808;-28
2024/01/04 03:08:10;;;;;;;1.02;0.88;;;;;;;8.87;100.00;99974.00;5095809;27;100640;-28
2024/01/04 03:10:35;;;;;;;0.77;0.77;;;;;;;8.85;100.00;99975.06;5096250;27;99225;-28
2024/01/04 03:13:03;;;;;;;1.23;0.57;;;;;;;8.80;100.00;99967.28;5096354;27;96586;-28
2024/01/04 03:15:28;;;;;;;2.10;1.05;;;;;;;8.87;100.00;99984.78;5077451;27;96760;-28
2024/01/04 03:17:53;;;;;;;0.30;0.30;;;;;;;8.85;100.00;99970.53;5095398;27;97452;-28
2024/01/04 03:20:19;;;;;;;1.05;0.70;;;;;;;8.85;100.00;99983.16;5095791;27;97787;-28
2024/01/04 03:22:44;;;;;;;2.00;1.27;;;;;;;8.82;100.00;99978.84;5096028;27;96545;-28
2024/01/04 03:25:10;;;;;;;2.00;0.88;;;;;;;8.76;100.00;99984.66;5096391;27;96750;-28
2024/01/04 03:27:36;;;;;;;3.58;0.88;;;;;;;8.81;100.00;99982.50;5095631;27;99337;-29
2024/01/04 03:30:02;;;;;;;0.85;0.70;;;;;;;8.81;100.00;99992.44;5095394;27;99356;-29
2024/01/04 03:32:27;;;;;;;0.80;0.70;;;;;;;8.80;100.00;99991.56;5077219;27;96577;-29
2024/01/04 03:34:52;;;;;;;1.08;0.68;;;;;;;8.82;100.00;99996.84;5096379;27;96882;-28
2024/01/04 03:37:18;;;;;;;1.20;0.77;;;;;;;8.87;100.00;100003.69;5095734;27;98204;-28
2024/01/04 03:39:43;;;;;;;0.80;0.55;;;;;;;8.78;100.00;100003.44;5095369;27;99299;-29
2024/01/04 03:42:08;;;;;;;0.60;0.38;;;;;;;8.74;100.00;100008.19;5095145;27;96622;-28
2024/01/04 03:44:34;;;;;;;4.88;0.63;;;;;;;8.69;100.00;100000.38;5095783;27;96807;-28
2024/01/04 03:46:59;;;;;;;0.10;0.10;;;;;;;8.73;100.00;100014.56;5095393;27;97701;-28
2024/01/04 03:49:24;;;;;;;1.65;0.60;;;;;;;8.67;100.00;100004.16;5095372;27;99310;-28
2024/01/04 03:51:50;;;;;;;0.40;0.40;;;;;;;8.69;100.00;100029.22;5095736;27;96691;-28
2024/01/04 03:54:16;;;;;;;0.17;0.17;;;;;;;8.71;100.00;100035.41;5095810;27;96766;-28
2024/01/04 03:56:41;;;;;;;0.52;0.38;;;;;;;8.69;100.00;100029.22;5095091;27;99457;-28
2024/01/04 03:59:06;;;;;;;6.07;0.47;;;;;;;8.71;100.00;100033.56;5095929;27;97366;-28
2024/01/04 04:01:32;;;;;;;0.28;0.20;;;;;;;8.71;100.00;100027.28;5094776;27;96757;-28
2024/01/04 04:03:57;;;;;;;0.28;0.28;;;;;;;8.71;100.00;100033.56;5095771;27;96804;-28
2024/01/04 04:06:22;;;;;;;4.38;0.30;;;;;;;8.71;100.00;100036.25;5094590;27;99471;-28
2024/01/04 04:08:48;;;;;;;0.88;0.32;;;;;;;8.75;100.00;100036.94;5095410;27;97341;-28
2024/01/04 04:11:17;;;;;;;0.00;0.00;;;;;;;8.69;100.00;100026.53;5098146;27;96620;-29
2024/01/04 04:13:43;;;;;;;0.20;0.20;;;;;;;8.74;100.00;100045.97;5080334;27;96635;-29
2024/01/04 04:16:08;;;;;;;4.03;0.60;;;;;;;8.71;100.00;100043.50;5098469;27;99763;-28
2024/01/04 04:18:34;;;;;;;2.85;0.25;;;;;;;8.67;100.00;100036.56;5098735;27;97785;-28
2024/01/04 04:20:59;;;;;;;0.82;0.32;;;;;;;8.66;100.00;100048.34;5098806;27;96591;-29
2024/01/04 04:23:24;;;;;;;3.85;0.90;;;;;;;8.66;100.00;100045.63;5099186;27;96552;-28
2024/01/04 04:25:50;;;;;;;0.57;0.25;;;;;;;8.65;100.00;100054.69;5098527;27;97472;-28
2024/01/04 04:28:15;;;;;;;0.30;0.20;;;;;;;8.69;100.00;100059.78;5098482;27;97837;-28
2024/01/04 04:30:41;;;;;;;0.10;0.10;;;;;;;8.67;100.00;100036.56;5098071;27;96610;-28
2024/01/04 04:33:06;;;;;;;3.53;1.13;;;;;;;8.72;100.00;100050.63;5098904;27;96875;-29
2024/01/04 04:35:31;;;;;;;0.30;0.20;;;;;;;8.77;100.00;100053.91;5098565;27;97378;-28
2024/01/04 04:37:57;;;;;;;1.50;0.40;;;;;;;8.63;100.00;100049.41;5098122;27;99322;-28
2024/01/04 04:40:22;;;;;;;0.35;0.30;;;;;;;8.72;100.00;100058.72;5098526;27;96779;-28
2024/01/04 04:42:47;;;;;;;0.60;0.30;;;;;;;8.60;100.00;100048.72;5098374;27;96914;-28
2024/01/04 04:45:13;;;;;;;0.25;0.08;;;;;;;8.66;100.00;100070.78;5097966;27;97549;-30
2024/01/04 04:47:38;;;;;;;0.38;0.38;;;;;;;8.60;100.00;100065.78;5098573;27;97775;-28
2024/01/04 04:50:04;;;;;;;1.02;0.25;;;;;;;8.63;100.00;100086.34;5098728;27;96833;-28
2024/01/04 04:52:29;;;;;;;1.23;0.55;;;;;;;8.57;100.00;100073.25;5098258;27;96755;-28
2024/01/04 04:54:55;;;;;;;0.03;0.03;;;;;;;8.61;100.00;100083.75;5097642;27;97943;-28
2024/01/04 04:57:21;;;;;;;0.88;0.40;;;;;;;8.59;100.00;100088.38;5098142;27;97803;-28
2024/01/04 04:59:47;;;;;;;0.47;0.43;;;;;;;8.60;100.00;100097.31;5097878;27;96660;-30
2024/01/04 05:02:13;;;;;;;0.28;0.20;;;;;;;8.62;100.00;100096.25;5078944;27;96849;-28
2024/01/04 05:04:38;;;;;;;1.05;0.60;;;;;;;8.67;100.00;100098.66;5098055;27;97959;-29
2024/01/04 05:07:04;;;;;;;0.15;0.15;;;;;;;8.64;100.00;100101.56;5097786;27;98739;-28
2024/01/04 05:09:29;;;;;;;6.18;0.77;;;;;;;8.60;100.00;100103.59;5098092;27;96641;-28
2024/01/04 05:11:55;;;;;;;1.20;0.30;;;;;;;8.60;100.00;100100.88;5098498;27;96787;-29
2024/01/04 05:14:20;;;;;;;0.52;0.47;;;;;;;8.66;100.00;100110.44;5097759;27;97940;-28
2024/01/04 05:16:45;;;;;;;1.10;0.50;;;;;;;8.63;100.00;100113.34;5097806;27;97283;-28
2024/01/04 05:19:11;;;;;;;5.10;0.52;;;;;;;8.68;100.00;100127.41;5097748;27;96640;-28
2024/01/04 05:21:36;;;;;;;0.22;0.22;;;;;;;8.64;100.00;100115.06;5097207;27;96826;-28
2024/01/04 05:24:02;;;;;;;4.90;0.45;;;;;;;8.66;100.00;100119.38;5097708;27;97426;-28
2024/01/04 05:26:27;;;;;;;0.50;0.50;;;;;;;8.59;100.00;100111.81;5097577;27;97371;-28
2024/01/04 05:28:52;;;;;;;0.50;0.40;;;;;;;8.59;100.00;100131.56;5097760;27;96667;-28
2024/01/04 05:31:21;;;;;;;0.57;0.52;;;;;;;8.56;100.00;100120.97;5097722;27;96804;-28
2024/01/04 05:33:47;;;;;;;0.47;0.25;;;;;;;8.59;100.00;100128.84;5097218;27;99506;-28
2024/01/04 05:36:12;;;;;;;0.75;0.43;;;;;;;8.59;100.00;100133.41;5079215;27;100972;-29
2024/01/04 05:38:38;;;;;;;1.00;0.85;;;;;;;8.59;100.00;100138.78;5097457;27;96626;-28
2024/01/04 05:41:06;;;;;;;0.30;0.20;;;;;;;8.57;100.00;100133.47;5097547;27;96747;-28
2024/01/04 05:43:33;;;;;;;0.13;0.13;;;;;;;8.55;100.00;100138.13;5077664;27;99587;-29
2024/01/04 05:45:59;;;;;;;0.30;0.30;;;;;;;8.55;100.00;100148.03;5097242;27;97305;-30
2024/01/04 05:48:24;;;;;;;0.20;0.20;;;;;;;8.52;100.00;100150.94;5078955;27;96727;-28
2024/01/04 05:50:49;;;;;;;1.58;0.45;;;;;;;8.50;100.00;100143.81;5097597;27;96893;-28
2024/01/04 05:53:15;;;;;;;0.40;0.40;;;;;;;8.55;100.00;100151.59;5097334;27;97470;-29
2024/01/04 05:55:40;;;;;;;1.25;0.17;;;;;;;8.52;100.00;100156.34;5097258;27;97797;-29
2024/01/04 05:58:06;;;;;;;2.10;0.30;;;;;;;8.50;100.00;100160.00;5097475;27;96810;-28
2024/01/04 06:00:31;;;;;;;0.80;0.47;;;;;;;8.48;100.00;100159.22;5097401;27;96790;-28
2024/01/04 06:02:56;;;;;;;0.55;0.20;;;;;;;8.48;100.00;100172.72;5078263;27;100925;-29
2024/01/04 06:05:22;;;;;;;0.70;0.50;;;;;;;8.46;100.00;100174.69;5096848;27;98821;-28
2024/01/04 06:07:47;;;;;;;0.30;0.15;;;;;;;8.50;100.00;100180.72;5096775;27;96557;-28
2024/01/04 06:10:12;;;;;;;1.08;0.52;;;;;;;8.45;100.00;100177.47;5097322;27;96808;-29
2024/01/04 06:12:38;;;;;;;0.50;0.50;;;;;;;8.47;100.00;100194.44;5096381;27;99592;-28
2024/01/04 06:15:03;;;;;;;0.38;0.20;;;;;;;8.43;100.00;100185.66;5096856;27;97523;-28
2024/01/04 06:17:29;;;;;;;0.35;0.35;;;;;;;8.50;100.00;100194.22;5096973;27;96607;-28
2024/01/04 06:19:54;;;;;;;0.30;0.20;;;;;;;8.46;100.00;100188.16;5097183;27;97047;-28
2024/01/04 06:22:20;;;;;;;4.68;0.40;;;;;;;8.49;100.00;100201.47;5096378;27;99426;-28
2024/01/04 06:24:46;;;;;;;0.00;0.00;;;;;;;8.48;100.00;100190.75;5097044;27;97848;-28
2024/01/04 06:27:11;;;;;;;0.35;0.28;;;;;;;8.48;100.00;100194.31;5096826;27;96653;-28
2024/01/04 06:29:37;;;;;;;0.10;0.10;;;;;;;8.50;100.00;100205.03;5097002;27;96803;-28
2024/01/04 06:32:03;;;;;;;0.00;0.00;;;;;;;8.50;100.00;100202.31;5096038;27;97378;-28
2024/01/04 06:34:28;;;;;;;0.10;0.10;;;;;;;8.52;100.00;100207.63;5095226;27;99662;-28
2024/01/04 06:36:54;;;;;;;0.43;0.20;;;;;;;8.53;100.00;100212.91;5096752;27;96683;-28
2024/01/04 06:39:19;;;;;;;3.67;0.43;;;;;;;8.56;100.00;100217.28;5096883;27;96454;-28
2024/01/04 06:41:44;;;;;;;0.30;0.30;;;;;;;8.60;100.00;100221.50;5095925;27;99353;-28
2024/01/04 06:44:10;;;;;;;0.17;0.17;;;;;;;8.58;100.00;100212.63;5096014;27;99479;-28
2024/01/04 06:46:36;;;;;;;0.10;0.10;;;;;;;8.60;100.00;100232.28;5078020;27;96542;-28
2024/01/04 06:49:01;;;;;;;0.13;0.10;;;;;;;8.60;100.00;100229.59;5096934;27;96737;-28
2024/01/04 06:51:26;;;;;;;0.15;0.10;;;;;;;8.53;100.00;100229.13;5096081;27;97574;-28
2024/01/04 06:53:52;;;;;;;0.00;0.00;;;;;;;8.61;100.00;100231.34;5096320;27;97983;-28
2024/01/04 06:56:19;;;;;;;0.47;0.20;;;;;;;8.63;100.00;100240.22;5096446;27;96650;-28
2024/01/04 06:58:45;;;;;;;0.03;0.03;;;;;;;8.57;100.00;100251.41;5077839;27;96873;-28
2024/01/04 07:01:11;;;;;;;0.28;0.25;;;;;;;8.63;100.00;100235.69;5077113;27;101690;-29
2024/01/04 07:03:36;;;;;;;0.00;0.00;;;;;;;8.63;100.00;100237.53;5077407;27;101073;-28
2024/01/04 07:06:02;;;;;;;0.30;0.15;;;;;;;8.65;100.00;100243.66;5096263;27;96491;-28
2024/01/04 07:08:28;;;;;;;0.10;0.10;;;;;;;8.69;100.00;100254.19;5096107;27;96806;-28
2024/01/04 07:10:53;;;;;;;0.20;0.17;;;;;;;8.71;100.00;100257.66;5077039;27;100940;-28
2024/01/04 07:13:19;;;;;;;0.00;0.00;;;;;;;8.63;100.00;100267.22;5096415;27;97793;-28
2024/01/04 07:15:44;;;;;;;1.25;0.10;;;;;;;8.65;100.00;100274.25;5096450;27;96449;-28
2024/01/04 07:18:09;;;;;;;0.90;0.13;;;;;;;8.64;100.00;100268.94;5096304;27;96775;-28
2024/01/04 07:20:35;;;;;;;0.08;0.08;;;;;;;8.66;100.00;100278.69;5095439;27;98342;-28
2024/01/04 07:23:00;;;;;;;0.20;0.17;;;;;;;8.71;100.00;100294.59;5095518;27;98610;-28
2024/01/04 07:25:26;;;;;;;1.70;0.35;;;;;;;8.58;100.00;100280.13;5096277;27;96729;-28
2024/01/04 07:27:52;;;;;;;0.00;0.00;;;;;;;8.59;100.00;100284.56;5096097;27;96767;-28
2024/01/04 07:30:17;;;;;;;0.13;0.10;;;;;;;8.65;100.00;100286.88;5077000;27;101391;-28
2024/01/04 07:32:43;;;;;;;0.20;0.17;;;;;;;8.68;100.00;100292.09;5095668;27;97783;-28
2024/01/04 07:35:12;;;;;;;0.00;0.00;;;;;;;8.71;100.00;100297.28;5095856;27;96517;-28
2024/01/04 07:37:38;;;;;;;0.47;0.10;;;;;;;8.67;100.00;100283.09;5077595;27;96913;-29
2024/01/04 07:40:04;;;;;;;0.40;0.28;;;;;;;8.67;100.00;100287.63;5076781;27;101482;-28
2024/01/04 07:42:30;;;;;;;0.15;0.10;;;;;;;8.65;100.00;100294.97;5076683;27;102924;-28
2024/01/04 07:44:55;;;;;;;0.60;0.30;;;;;;;8.68;100.00;100300.19;5096049;27;96643;-28
2024/01/04 07:47:20;;;;;;;0.13;0.13;;;;;;;8.65;100.00;100297.66;5099390;27;96842;-28
2024/01/04 07:49:46;;;;;;;0.28;0.28;;;;;;;8.61;100.00;100302.41;5080511;27;98893;-28
2024/01/04 07:52:11;;;;;;;2.22;0.52;;;;;;;8.64;100.00;100304.03;5098772;27;99280;-28
2024/01/04 07:54:37;;;;;;;0.10;0.10;;;;;;;8.68;100.00;100316.38;5099298;27;96490;-28
2024/01/04 07:57:02;;;;;;;0.13;0.08;;;;;;;8.61;100.00;100317.75;5099445;27;96743;-29
2024/01/04 07:59:27;;;;;;;0.00;0.00;;;;;;;8.63;100.00;100315.81;5098698;27;99542;-28
2024/01/04 08:01:53;;;;;;;0.00;0.00;;;;;;;8.58;100.00;100316.09;5079920;27;99590;-28
2024/01/04 08:04:18;;;;;;;0.00;0.00;;;;;;;8.54;100.00;100325.34;5099508;27;96490;-28
2024/01/04 08:06:44;;;;;;;0.10;0.10;;;;;;;8.55;100.00;100331.59;5099354;27;96765;-28
2024/01/04 08:09:11;;;;;;;0.10;0.10;;;;;;;8.55;100.00;100335.16;5079541;27;99057;-27
2024/01/04 08:11:38;;;;;;;0.00;0.00;;;;;;;8.53;100.00;100330.81;5079991;27;100989;-28
2024/01/04 08:14:03;;;;;;;0.10;0.10;;;;;;;8.53;100.00;100342.47;5080523;27;96570;-28
2024/01/04 08:16:28;;;;;;;0.05;0.05;;;;;;;8.54;100.00;100340.66;5099284;27;96836;-28
2024/01/04 08:18:54;;;;;;;0.00;0.00;;;;;;;8.52;100.00;100335.34;5098623;27;99148;-28
2024/01/04 08:21:19;;;;;;;0.20;0.10;;;;;;;8.48;100.00;100321.16;5098698;27;97824;-28
2024/01/04 08:23:44;;;;;;;0.00;0.00;;;;;;;8.56;100.00;100342.31;5099108;27;96493;-28
2024/01/04 08:26:10;;;;;;;0.03;0.03;;;;;;;8.47;100.00;100338.34;5099313;27;96896;-28
2024/01/04 08:28:39;;;;;;;0.90;0.10;;;;;;;8.53;100.00;100333.53;5079821;27;101191;-29
2024/01/04 08:31:04;;;;;;;0.00;0.00;;;;;;;8.62;100.00;100346.47;5079759;27;101302;-28
2024/01/04 08:33:29;;;;;;;0.00;0.00;;;;;;;8.55;100.00;100345.09;5098036;27;96561;-28
2024/01/04 08:35:55;;;;;;;0.10;0.10;;;;;;;8.59;100.00;100350.22;5099146;27;96562;-28
2024/01/04 08:38:21;;;;;;;0.15;0.15;;;;;;;8.57;100.00;100340.47;5098007;27;99367;-29
2024/01/04 08:40:47;;;;;;;0.00;0.00;;;;;;;8.49;100.00;100339.13;5098142;27;98705;-28
2024/01/04 08:43:13;;;;;;;1.60;0.13;;;;;;;8.48;100.00;100352.69;5098499;27;96485;-29
2024/01/04 08:45:38;;;;;;;0.10;0.00;;;;;;;8.46;100.00;100357.31;5098355;27;96816;-28
2024/01/04 08:48:04;;;;;;;0.30;0.20;;;;;;;8.45;100.00;100359.16;5098361;27;97995;-27
2024/01/04 08:50:29;;;;;;;0.38;0.10;;;;;;;8.52;100.00;100369.59;5098723;27;97726;-29
2024/01/04 08:52:55;;;;;;;0.05;0.00;;;;;;;8.63;100.00;100359.00;5097945;27;96907;-29
2024/01/04 08:55:20;;;;;;;0.05;0.05;;;;;;;8.66;100.00;100354.28;5098232;27;96844;-28
2024/01/04 08:57:46;;;;;;;1.80;0.35;;;;;;;8.53;100.00;100368.63;5096372;27;99371;-30
2024/01/04 09:00:12;;;;;;;0.15;0.15;;;;;;;8.59;100.00;100368.25;5062394;27;101602;-28
2024/01/04 09:02:38;;;;;;;0.10;0.10;;;;;;;8.54;100.00;100373.06;5097938;27;96698;-28
2024/01/04 09:05:05;;;;;;;0.45;0.17;;;;;;;8.49;100.00;100367.94;5098417;27;96864;-28
2024/01/04 09:07:30;;;;;;;0.30;0.30;;;;;;;8.68;100.00;100384.75;5098022;27;97980;-28
2024/01/04 09:09:55;;;;;;;0.38;0.30;;;;;;;8.73;100.00;100379.06;5097687;27;99177;-29
2024/01/04 09:12:21;;;;;;;0.17;0.13;;;;;;;8.76;100.00;100383.41;5098317;27;96485;-29
2024/01/04 09:14:46;;;;;;;0.20;0.20;;;;;;;8.81;100.00;100387.56;5098685;27;96829;-28
2024/01/04 09:17:12;;;;;;;0.63;0.25;;;;;;;8.81;100.00;100389.41;5097737;27;97924;-29
2024/01/04 09:19:39;;;;;;;0.40;0.40;;;;;;;8.80;100.00;100383.13;5097873;27;97775;-28
2024/01/04 09:22:04;;;;;;;1.10;0.35;;;;;;;8.84;100.00;100390.09;5097275;27;96598;-28
2024/01/04 09:24:31;;;;;;;0.45;0.38;;;;;;;8.75;100.00;100396.06;5097739;27;96734;-28
2024/01/04 09:26:57;;;;;;;1.70;0.95;;;;;;;8.75;100.00;100390.66;5097525;27;97454;-28
2024/01/04 09:29:22;;;;;;;0.50;0.45;;;;;;;8.69;100.00;100388.31;5078812;27;100007;-29
2024/01/04 09:31:48;;;;;;;0.10;0.10;;;;;;;8.73;100.00;100402.50;5097895;27;96655;-28
2024/01/04 09:34:13;;;;;;;0.73;0.40;;;;;;;8.78;100.00;100393.16;5097960;27;96760;-28
2024/01/04 09:36:38;;;;;;;3.58;0.40;;;;;;;8.82;100.00;100396.53;5096905;27;99324;-27
2024/01/04 09:39:04;;;;;;;10.32;0.30;;;;;;;8.95;100.00;100402.06;5097564;27;99320;-28
2024/01/04 09:41:35;;;;;;;0.35;0.22;;;;;;;8.99;100.00;100403.59;5097314;27;96579;-29
2024/01/04 09:44:05;;;;;;;0.22;0.22;;;;;;;9.04;100.00;100413.16;5078676;27;96730;-28
2024/01/04 09:46:35;;;;;;;0.52;0.45;;;;;;;9.05;100.00;100419.41;5078161;27;101193;-30
2024/01/04 09:49:01;;;;;;;0.30;0.30;;;;;;;9.07;100.00;100426.47;5078541;27;100906;-28
2024/01/04 09:51:28;;;;;;;0.17;0.17;;;;;;;9.07;100.00;100415.66;5078397;27;96771;-28
2024/01/04 09:53:54;;;;;;;0.22;0.13;;;;;;;8.99;100.00;100427.91;5078922;27;96883;-29
2024/01/04 09:56:22;;;;;;;1.05;0.57;;;;;;;8.89;100.00;100425.78;5078451;27;101216;-28
2024/01/04 09:58:48;;;;;;;0.13;0.13;;;;;;;8.88;100.00;100428.56;5078405;27;101160;-30
2024/01/04 10:01:20;;;;;;;0.00;0.00;;;;;;;8.88;100.00;100440.22;5096882;27;96553;-28
2024/01/04 10:03:50;;;;;;;0.00;0.00;;;;;;;8.85;100.00;100437.72;5078788;27;96778;-28
2024/01/04 10:06:22;;;;;;;1.98;0.22;;;;;;;8.82;100.00;100435.22;5096849;27;99486;-28
2024/01/04 10:08:56;;;;;;;0.10;0.10;;;;;;;8.88;100.00;100436.66;5077998;27;101615;-28
2024/01/04 10:11:28;;;;;;;0.20;0.10;;;;;;;8.87;100.00;100448.44;5097002;27;96495;-28
2024/01/04 10:13:53;;;;;;;0.55;0.30;;;;;;;8.90;100.00;100448.25;5097370;27;96522;-28
2024/01/04 10:16:19;;;;;;;0.40;0.40;;;;;;;8.89;100.00;100441.97;5078049;27;99373;-28
2024/01/04 10:18:44;;;;;;;1.35;0.40;;;;;;;8.95;100.00;100461.47;5096782;27;97461;-28
2024/01/04 10:21:10;;;;;;;0.80;0.55;;;;;;;8.95;100.00;100453.38;5097122;27;96541;-29
2024/01/04 10:23:36;;;;;;;4.53;0.40;;;;;;;9.04;100.00;100447.41;5096736;27;96840;-28
2024/01/04 10:26:09;;;;;;;0.10;0.10;;;;;;;9.18;100.00;100462.78;5096757;27;97544;-28
2024/01/04 10:28:39;;;;;;;0.50;0.28;;;;;;;9.18;100.00;100457.38;5078220;27;101001;-28
2024/01/04 10:31:08;;;;;;;0.55;0.40;;;;;;;9.20;100.00;100456.31;5096698;27;96663;-28
2024/01/04 10:33:34;;;;;;;0.22;0.22;;;;;;;9.24;100.00;100460.53;5097020;27;96804;-28
2024/01/04 10:36:10;;;;;;;1.40;0.52;;;;;;;9.21;100.00;100465.28;5077419;27;101226;-28
2024/01/04 10:38:36;;;;;;;0.30;0.13;;;;;;;9.20;100.00;100455.41;5077903;27;100923;-28
2024/01/04 10:41:04;;;;;;;1.67;0.50;;;;;;;9.27;100.00;100462.16;5077984;27;96705;-28
2024/01/04 10:43:33;;;;;;;0.98;0.32;;;;;;;9.27;100.00;100460.38;5096161;27;96896;-28
2024/01/04 10:46:08;;;;;;;0.30;0.17;;;;;;;9.26;100.00;100466.72;5096275;27;97783;-28
2024/01/04 10:48:37;;;;;;;0.00;0.00;;;;;;;9.34;100.00;100468.94;5077736;27;101402;-28
2024/01/04 10:51:05;;;;;;;0.30;0.20;;;;;;;9.36;100.00;100467.00;5096397;27;96471;-28
2024/01/04 10:53:34;;;;;;;0.30;0.20;;;;;;;9.40;100.00;100473.09;5078251;27;96845;-28
2024/01/04 10:56:03;;;;;;;0.10;0.10;;;;;;;9.31;100.00;100463.72;5077237;27;101192;-28
2024/01/04 10:58:40;;;;;;;4.38;0.30;;;;;;;9.28;100.00;100462.09;5096057;27;99217;-29
2024/01/04 11:01:05;;;;;;;1.17;0.30;;;;;;;9.27;100.00;100467.56;5095479;27;96751;-28
2024/01/04 11:03:31;;;;;;;0.50;0.30;;;;;;;9.30;100.00;100457.47;5096484;27;96628;-28
2024/01/04 11:05:59;;;;;;;0.30;0.17;;;;;;;9.29;100.00;100452.13;5077338;27;100861;-29
2024/01/04 11:08:26;;;;;;;0.73;0.20;;;;;;;9.34;100.00;100461.72;5077132;27;101076;-27
2024/01/04 11:10:53;;;;;;;0.38;0.32;;;;;;;9.32;100.00;100474.47;5077583;27;96701;-28
2024/01/04 11:13:19;;;;;;;0.63;0.32;;;;;;;9.33;100.00;100470.78;5096479;27;96759;-28
2024/01/04 11:15:45;;;;;;;0.80;0.28;;;;;;;9.37;100.00;100468.75;5095795;27;98794;-29
2024/01/04 11:18:38;;;;;;;3.65;0.08;;;;;;;9.43;100.00;100465.66;5077654;27;101357;-28
2024/01/04 11:21:17;;;;;;;0.20;0.10;;;;;;;9.54;100.00;100465.00;5095602;27;97166;-28